sensor_id;sensor_type;location;lat;lon;timestamp;P1;durP1;ratioP1;P2;durP2;ratioP2
9240;SDS011;53485;49.326;9.738;2023-04-24T00:00:39;2.20;;;0.40;;
9240;SDS011;53485;49.326;9.738;2023-04-24T00:03:05;5.60;;;0.60;;
9240;SDS011;53485;49.326;9.738;2023-04-24T00:05:31;0.90;;;0.50;;
9240;SDS011;53485;49.326;9.738;2023-04-24T00:07:58;0.60;;;0.40;;
9240;SDS011;53485;49.326;9.738;2023-04-24T00:10:24;1.53;;;0.70;;
9240;SDS011;53485;49.326;9.738;2023-04-24T00:12:51;0.53;;;0.40;;
9240;SDS011;53485;49.326;9.738;2023-04-24T00:15:17;0.53;;;0.40;;
9240;SDS011;53485;49.326;9.738;2023-04-24T00:17:44;0.30;;;0.30;;
9240;SDS011;53485;49.326;9.738;2023-04-24T00:20:10;2.60;;;0.47;;
9240;SDS011;53485;49.326;9.738;2023-04-24T00:22:37;1.93;;;0.40;;
9240;SDS011;53485;49.326;9.738;2023-04-24T00:25:04;2.23;;;0.40;;
9240;SDS011;53485;49.326;9.738;2023-04-24T00:27:30;0.67;;;0.37;;
9240;SDS011;53485;49.326;9.738;2023-04-24T00:29:57;1.50;;;0.30;;
9240;SDS011;53485;49.326;9.738;2023-04-24T00:32:24;0.97;;;0.47;;
9240;SDS011;53485;49.326;9.738;2023-04-24T00:34:50;0.40;;;0.30;;
9240;SDS011;53485;49.326;9.738;2023-04-24T00:37:17;1.77;;;0.40;;
9240;SDS011;53485;49.326;9.738;2023-04-24T00:39:43;0.83;;;0.30;;
9240;SDS011;53485;49.326;9.738;2023-04-24T00:42:10;0.60;;;0.40;;
9240;SDS011;53485;49.326;9.738;2023-04-24T00:44:36;0.30;;;0.30;;
9240;SDS011;53485;49.326;9.738;2023-04-24T00:47:03;1.17;;;0.40;;
9240;SDS011;53485;49.326;9.738;2023-04-24T00:49:29;0.50;;;0.30;;
9240;SDS011;53485;49.326;9.738;2023-04-24T00:51:56;0.73;;;0.30;;
9240;SDS011;53485;49.326;9.738;2023-04-24T00:54:22;0.50;;;0.30;;
9240;SDS011;53485;49.326;9.738;2023-04-24T00:56:49;0.97;;;0.30;;
9240;SDS011;53485;49.326;9.738;2023-04-24T00:59:16;0.93;;;0.30;;
9240;SDS011;53485;49.326;9.738;2023-04-24T01:01:42;0.47;;;0.30;;
9240;SDS011;53485;49.326;9.738;2023-04-24T01:04:09;0.50;;;0.30;;
9240;SDS011;53485;49.326;9.738;2023-04-24T01:06:35;0.50;;;0.40;;
9240;SDS011;53485;49.326;9.738;2023-04-24T01:09:01;1.10;;;0.40;;
9240;SDS011;53485;49.326;9.738;2023-04-24T01:11:27;0.40;;;0.30;;
9240;SDS011;53485;49.326;9.738;2023-04-24T01:13:53;1.27;;;0.30;;
9240;SDS011;53485;49.326;9.738;2023-04-24T01:16:20;1.90;;;0.40;;
9240;SDS011;53485;49.326;9.738;2023-04-24T01:18:47;0.63;;;0.37;;
9240;SDS011;53485;49.326;9.738;2023-04-24T01:21:13;0.50;;;0.30;;
9240;SDS011;53485;49.326;9.738;2023-04-24T01:23:39;2.33;;;0.40;;
9240;SDS011;53485;49.326;9.738;2023-04-24T01:26:06;0.53;;;0.30;;
9240;SDS011;53485;49.326;9.738;2023-04-24T01:28:32;0.50;;;0.30;;
9240;SDS011;53485;49.326;9.738;2023-04-24T01:30:59;0.87;;;0.40;;
9240;SDS011;53485;49.326;9.738;2023-04-24T01:33:25;0.40;;;0.40;;
9240;SDS011;53485;49.326;9.738;2023-04-24T01:35:51;0.40;;;0.40;;
9240;SDS011;53485;49.326;9.738;2023-04-24T01:38:18;1.47;;;0.40;;
9240;SDS011;53485;49.326;9.738;2023-04-24T01:40:44;2.10;;;0.40;;
9240;SDS011;53485;49.326;9.738;2023-04-24T01:43:11;1.67;;;0.40;;
9240;SDS011;53485;49.326;9.738;2023-04-24T01:45:37;1.00;;;0.50;;
9240;SDS011;53485;49.326;9.738;2023-04-24T01:48:04;4.40;;;0.50;;
9240;SDS011;53485;49.326;9.738;2023-04-24T01:50:30;1.43;;;0.40;;
9240;SDS011;53485;49.326;9.738;2023-04-24T01:52:56;0.30;;;0.30;;
9240;SDS011;53485;49.326;9.738;2023-04-24T01:55:22;0.30;;;0.30;;
9240;SDS011;53485;49.326;9.738;2023-04-24T01:57:51;1.23;;;0.40;;
9240;SDS011;53485;49.326;9.738;2023-04-24T02:00:16;0.70;;;0.40;;
9240;SDS011;53485;49.326;9.738;2023-04-24T02:02:43;0.40;;;0.37;;
9240;SDS011;53485;49.326;9.738;2023-04-24T02:05:09;1.47;;;0.40;;
9240;SDS011;53485;49.326;9.738;2023-04-24T02:07:36;1.33;;;0.37;;
9240;SDS011;53485;49.326;9.738;2023-04-24T02:10:02;2.83;;;0.40;;
9240;SDS011;53485;49.326;9.738;2023-04-24T02:12:28;0.90;;;0.40;;
9240;SDS011;53485;49.326;9.738;2023-04-24T02:14:55;0.70;;;0.40;;
9240;SDS011;53485;49.326;9.738;2023-04-24T02:17:21;0.53;;;0.30;;
9240;SDS011;53485;49.326;9.738;2023-04-24T02:19:48;0.40;;;0.40;;
9240;SDS011;53485;49.326;9.738;2023-04-24T02:22:14;1.73;;;0.50;;
9240;SDS011;53485;49.326;9.738;2023-04-24T02:24:41;0.60;;;0.40;;
9240;SDS011;53485;49.326;9.738;2023-04-24T02:27:07;0.40;;;0.30;;
9240;SDS011;53485;49.326;9.738;2023-04-24T02:29:34;2.10;;;0.50;;
9240;SDS011;53485;49.326;9.738;2023-04-24T02:32:01;1.50;;;0.20;;
9240;SDS011;53485;49.326;9.738;2023-04-24T02:34:27;0.47;;;0.47;;
9240;SDS011;53485;49.326;9.738;2023-04-24T02:36:53;1.27;;;0.30;;
9240;SDS011;53485;49.326;9.738;2023-04-24T02:39:20;0.60;;;0.30;;
9240;SDS011;53485;49.326;9.738;2023-04-24T02:41:46;0.37;;;0.30;;
9240;SDS011;53485;49.326;9.738;2023-04-24T02:44:13;1.80;;;0.40;;
9240;SDS011;53485;49.326;9.738;2023-04-24T02:46:39;0.63;;;0.30;;
9240;SDS011;53485;49.326;9.738;2023-04-24T02:49:06;0.53;;;0.30;;
9240;SDS011;53485;49.326;9.738;2023-04-24T02:51:32;3.80;;;0.40;;
9240;SDS011;53485;49.326;9.738;2023-04-24T02:53:59;1.37;;;0.40;;
9240;SDS011;53485;49.326;9.738;2023-04-24T02:56:25;1.40;;;0.50;;
9240;SDS011;53485;49.326;9.738;2023-04-24T02:58:52;0.30;;;0.30;;
9240;SDS011;53485;49.326;9.738;2023-04-24T03:01:19;3.13;;;0.50;;
9240;SDS011;53485;49.326;9.738;2023-04-24T03:03:45;1.00;;;0.37;;
9240;SDS011;53485;49.326;9.738;2023-04-24T03:06:12;0.70;;;0.30;;
9240;SDS011;53485;49.326;9.738;2023-04-24T03:08:38;1.07;;;0.50;;
9240;SDS011;53485;49.326;9.738;2023-04-24T03:11:05;0.47;;;0.40;;
9240;SDS011;53485;49.326;9.738;2023-04-24T03:13:32;0.73;;;0.40;;
9240;SDS011;53485;49.326;9.738;2023-04-24T03:15:58;0.90;;;0.50;;
9240;SDS011;53485;49.326;9.738;2023-04-24T03:18:25;0.90;;;0.40;;
9240;SDS011;53485;49.326;9.738;2023-04-24T03:20:52;0.80;;;0.30;;
9240;SDS011;53485;49.326;9.738;2023-04-24T03:23:18;2.40;;;0.50;;
9240;SDS011;53485;49.326;9.738;2023-04-24T03:25:45;1.50;;;0.50;;
9240;SDS011;53485;49.326;9.738;2023-04-24T03:28:11;0.77;;;0.40;;
9240;SDS011;53485;49.326;9.738;2023-04-24T03:30:38;0.50;;;0.30;;
9240;SDS011;53485;49.326;9.738;2023-04-24T03:33:04;2.43;;;0.40;;
9240;SDS011;53485;49.326;9.738;2023-04-24T03:35:31;0.87;;;0.33;;
9240;SDS011;53485;49.326;9.738;2023-04-24T03:37:57;3.10;;;0.50;;
9240;SDS011;53485;49.326;9.738;2023-04-24T03:40:24;1.30;;;0.40;;
9240;SDS011;53485;49.326;9.738;2023-04-24T03:42:51;0.40;;;0.30;;
9240;SDS011;53485;49.326;9.738;2023-04-24T03:45:17;2.20;;;0.40;;
9240;SDS011;53485;49.326;9.738;2023-04-24T03:47:44;1.97;;;0.40;;
9240;SDS011;53485;49.326;9.738;2023-04-24T03:50:11;0.30;;;0.30;;
9240;SDS011;53485;49.326;9.738;2023-04-24T03:52:37;1.30;;;0.40;;
9240;SDS011;53485;49.326;9.738;2023-04-24T03:55:04;1.50;;;0.50;;
9240;SDS011;53485;49.326;9.738;2023-04-24T03:57:31;0.80;;;0.50;;
9240;SDS011;53485;49.326;9.738;2023-04-24T03:59:57;0.60;;;0.30;;
9240;SDS011;53485;49.326;9.738;2023-04-24T04:02:24;0.80;;;0.30;;
9240;SDS011;53485;49.326;9.738;2023-04-24T04:04:51;1.80;;;0.30;;
9240;SDS011;53485;49.326;9.738;2023-04-24T04:07:17;0.90;;;0.40;;
9240;SDS011;53485;49.326;9.738;2023-04-24T04:09:44;0.53;;;0.20;;
9240;SDS011;53485;49.326;9.738;2023-04-24T04:12:10;0.67;;;0.30;;
9240;SDS011;53485;49.326;9.738;2023-04-24T04:14:37;0.60;;;0.40;;
9240;SDS011;53485;49.326;9.738;2023-04-24T04:17:03;0.80;;;0.30;;
9240;SDS011;53485;49.326;9.738;2023-04-24T04:19:30;1.30;;;0.30;;
9240;SDS011;53485;49.326;9.738;2023-04-24T04:21:56;1.17;;;0.30;;
9240;SDS011;53485;49.326;9.738;2023-04-24T04:24:23;0.93;;;0.50;;
9240;SDS011;53485;49.326;9.738;2023-04-24T04:26:49;0.67;;;0.50;;
9240;SDS011;53485;49.326;9.738;2023-04-24T04:29:15;1.00;;;0.40;;
9240;SDS011;53485;49.326;9.738;2023-04-24T04:31:42;0.90;;;0.43;;
9240;SDS011;53485;49.326;9.738;2023-04-24T04:34:09;0.90;;;0.30;;
9240;SDS011;53485;49.326;9.738;2023-04-24T04:36:35;2.30;;;0.40;;
9240;SDS011;53485;49.326;9.738;2023-04-24T04:39:02;0.40;;;0.40;;
9240;SDS011;53485;49.326;9.738;2023-04-24T04:41:28;0.50;;;0.30;;
9240;SDS011;53485;49.326;9.738;2023-04-24T04:43:54;1.37;;;0.50;;
9240;SDS011;53485;49.326;9.738;2023-04-24T04:46:21;0.43;;;0.30;;
9240;SDS011;53485;49.326;9.738;2023-04-24T04:48:47;1.63;;;0.40;;
9240;SDS011;53485;49.326;9.738;2023-04-24T04:51:13;1.00;;;0.50;;
9240;SDS011;53485;49.326;9.738;2023-04-24T04:53:40;4.53;;;0.60;;
9240;SDS011;53485;49.326;9.738;2023-04-24T04:56:07;0.93;;;0.60;;
9240;SDS011;53485;49.326;9.738;2023-04-24T04:58:33;1.27;;;0.70;;
9240;SDS011;53485;49.326;9.738;2023-04-24T05:01:00;1.17;;;0.57;;
9240;SDS011;53485;49.326;9.738;2023-04-24T05:03:26;1.33;;;0.57;;
9240;SDS011;53485;49.326;9.738;2023-04-24T05:05:53;2.03;;;0.70;;
9240;SDS011;53485;49.326;9.738;2023-04-24T05:08:19;0.80;;;0.70;;
9240;SDS011;53485;49.326;9.738;2023-04-24T05:10:46;0.70;;;0.70;;
9240;SDS011;53485;49.326;9.738;2023-04-24T05:13:12;1.30;;;1.00;;
9240;SDS011;53485;49.326;9.738;2023-04-24T05:15:39;1.03;;;0.87;;
9240;SDS011;53485;49.326;9.738;2023-04-24T05:18:05;2.77;;;1.10;;
9240;SDS011;53485;49.326;9.738;2023-04-24T05:20:32;1.77;;;1.00;;
9240;SDS011;53485;49.326;9.738;2023-04-24T05:22:58;2.33;;;0.97;;
9240;SDS011;53485;49.326;9.738;2023-04-24T05:25:25;0.83;;;0.83;;
9240;SDS011;53485;49.326;9.738;2023-04-24T05:27:52;1.40;;;1.10;;
9240;SDS011;53485;49.326;9.738;2023-04-24T05:30:18;1.13;;;0.90;;
9240;SDS011;53485;49.326;9.738;2023-04-24T05:32:44;1.30;;;1.10;;
9240;SDS011;53485;49.326;9.738;2023-04-24T05:35:11;1.40;;;1.10;;
9240;SDS011;53485;49.326;9.738;2023-04-24T05:37:37;2.27;;;1.33;;
9240;SDS011;53485;49.326;9.738;2023-04-24T05:40:04;5.77;;;1.70;;
9240;SDS011;53485;49.326;9.738;2023-04-24T05:42:31;2.13;;;1.57;;
9240;SDS011;53485;49.326;9.738;2023-04-24T05:44:58;2.53;;;1.97;;
9240;SDS011;53485;49.326;9.738;2023-04-24T05:47:24;4.23;;;2.53;;
9240;SDS011;53485;49.326;9.738;2023-04-24T05:49:51;2.63;;;2.20;;
9240;SDS011;53485;49.326;9.738;2023-04-24T05:52:17;4.13;;;2.73;;
9240;SDS011;53485;49.326;9.738;2023-04-24T05:54:44;3.67;;;2.30;;
9240;SDS011;53485;49.326;9.738;2023-04-24T05:57:10;3.60;;;2.70;;
9240;SDS011;53485;49.326;9.738;2023-04-24T05:59:37;4.43;;;2.90;;
9240;SDS011;53485;49.326;9.738;2023-04-24T06:02:03;2.70;;;2.50;;
9240;SDS011;53485;49.326;9.738;2023-04-24T06:04:29;3.63;;;2.43;;
9240;SDS011;53485;49.326;9.738;2023-04-24T06:06:56;3.30;;;2.97;;
9240;SDS011;53485;49.326;9.738;2023-04-24T06:09:22;3.80;;;2.80;;
9240;SDS011;53485;49.326;9.738;2023-04-24T06:11:49;4.17;;;3.20;;
9240;SDS011;53485;49.326;9.738;2023-04-24T06:14:15;4.57;;;3.90;;
9240;SDS011;53485;49.326;9.738;2023-04-24T06:16:42;6.80;;;4.10;;
9240;SDS011;53485;49.326;9.738;2023-04-24T06:19:08;4.93;;;4.00;;
9240;SDS011;53485;49.326;9.738;2023-04-24T06:21:34;5.20;;;4.70;;
9240;SDS011;53485;49.326;9.738;2023-04-24T06:24:00;5.83;;;5.23;;
9240;SDS011;53485;49.326;9.738;2023-04-24T06:26:27;6.20;;;5.60;;
9240;SDS011;53485;49.326;9.738;2023-04-24T06:28:53;6.13;;;5.30;;
9240;SDS011;53485;49.326;9.738;2023-04-24T06:31:20;5.27;;;4.77;;
9240;SDS011;53485;49.326;9.738;2023-04-24T06:33:46;5.63;;;5.13;;
9240;SDS011;53485;49.326;9.738;2023-04-24T06:36:13;5.33;;;4.20;;
9240;SDS011;53485;49.326;9.738;2023-04-24T06:38:39;5.43;;;4.93;;
9240;SDS011;53485;49.326;9.738;2023-04-24T06:41:05;6.43;;;4.33;;
9240;SDS011;53485;49.326;9.738;2023-04-24T06:43:32;6.50;;;4.97;;
9240;SDS011;53485;49.326;9.738;2023-04-24T06:45:59;5.00;;;4.27;;
9240;SDS011;53485;49.326;9.738;2023-04-24T06:48:24;5.70;;;4.27;;
9240;SDS011;53485;49.326;9.738;2023-04-24T06:50:51;3.73;;;3.33;;
9240;SDS011;53485;49.326;9.738;2023-04-24T06:53:17;6.60;;;4.47;;
9240;SDS011;53485;49.326;9.738;2023-04-24T06:55:43;4.27;;;3.23;;
9240;SDS011;53485;49.326;9.738;2023-04-24T06:58:09;4.80;;;3.63;;
9240;SDS011;53485;49.326;9.738;2023-04-24T07:00:35;7.67;;;5.27;;
9240;SDS011;53485;49.326;9.738;2023-04-24T07:03:02;4.20;;;3.80;;
9240;SDS011;53485;49.326;9.738;2023-04-24T07:05:28;3.83;;;3.23;;
9240;SDS011;53485;49.326;9.738;2023-04-24T07:07:54;4.97;;;4.47;;
9240;SDS011;53485;49.326;9.738;2023-04-24T07:10:21;3.83;;;3.50;;
9240;SDS011;53485;49.326;9.738;2023-04-24T07:12:47;2.87;;;2.67;;
9240;SDS011;53485;49.326;9.738;2023-04-24T07:15:14;3.97;;;3.50;;
9240;SDS011;53485;49.326;9.738;2023-04-24T07:17:40;3.77;;;3.27;;
9240;SDS011;53485;49.326;9.738;2023-04-24T07:20:07;3.83;;;2.90;;
9240;SDS011;53485;49.326;9.738;2023-04-24T07:22:33;5.27;;;4.00;;
9240;SDS011;53485;49.326;9.738;2023-04-24T07:25:00;3.70;;;3.40;;
9240;SDS011;53485;49.326;9.738;2023-04-24T07:27:27;3.70;;;3.40;;
9240;SDS011;53485;49.326;9.738;2023-04-24T07:29:53;6.73;;;3.37;;
9240;SDS011;53485;49.326;9.738;2023-04-24T07:32:20;4.60;;;3.73;;
9240;SDS011;53485;49.326;9.738;2023-04-24T07:34:46;2.50;;;2.30;;
9240;SDS011;53485;49.326;9.738;2023-04-24T07:37:13;3.20;;;2.97;;
9240;SDS011;53485;49.326;9.738;2023-04-24T07:39:39;2.70;;;2.60;;
9240;SDS011;53485;49.326;9.738;2023-04-24T07:42:06;4.50;;;3.00;;
9240;SDS011;53485;49.326;9.738;2023-04-24T07:44:33;3.50;;;3.20;;
9240;SDS011;53485;49.326;9.738;2023-04-24T07:46:59;3.50;;;3.10;;
9240;SDS011;53485;49.326;9.738;2023-04-24T07:49:26;3.13;;;2.83;;
9240;SDS011;53485;49.326;9.738;2023-04-24T07:51:52;2.67;;;2.47;;
9240;SDS011;53485;49.326;9.738;2023-04-24T07:54:19;2.70;;;2.40;;
9240;SDS011;53485;49.326;9.738;2023-04-24T07:56:46;2.73;;;2.53;;
9240;SDS011;53485;49.326;9.738;2023-04-24T07:59:12;3.63;;;2.33;;
9240;SDS011;53485;49.326;9.738;2023-04-24T08:01:39;2.73;;;2.50;;
9240;SDS011;53485;49.326;9.738;2023-04-24T08:04:05;3.00;;;1.90;;
9240;SDS011;53485;49.326;9.738;2023-04-24T08:06:32;3.47;;;1.40;;
9240;SDS011;53485;49.326;9.738;2023-04-24T08:08:59;1.40;;;1.30;;
9240;SDS011;53485;49.326;9.738;2023-04-24T08:11:25;1.70;;;1.30;;
9240;SDS011;53485;49.326;9.738;2023-04-24T08:13:51;2.80;;;1.30;;
9240;SDS011;53485;49.326;9.738;2023-04-24T08:16:17;2.80;;;1.63;;
9240;SDS011;53485;49.326;9.738;2023-04-24T08:18:44;2.47;;;1.20;;
9240;SDS011;53485;49.326;9.738;2023-04-24T08:21:10;1.23;;;1.00;;
9240;SDS011;53485;49.326;9.738;2023-04-24T08:23:37;1.63;;;1.03;;
9240;SDS011;53485;49.326;9.738;2023-04-24T08:26:03;1.40;;;1.30;;
9240;SDS011;53485;49.326;9.738;2023-04-24T08:28:30;2.20;;;1.40;;
9240;SDS011;53485;49.326;9.738;2023-04-24T08:30:56;2.83;;;1.40;;
9240;SDS011;53485;49.326;9.738;2023-04-24T08:33:23;3.33;;;1.10;;
9240;SDS011;53485;49.326;9.738;2023-04-24T08:35:49;2.33;;;1.10;;
9240;SDS011;53485;49.326;9.738;2023-04-24T08:38:15;3.07;;;1.20;;
9240;SDS011;53485;49.326;9.738;2023-04-24T08:40:41;2.13;;;0.90;;
9240;SDS011;53485;49.326;9.738;2023-04-24T08:43:08;1.63;;;0.60;;
9240;SDS011;53485;49.326;9.738;2023-04-24T08:45:34;0.60;;;0.60;;
9240;SDS011;53485;49.326;9.738;2023-04-24T08:48:00;0.80;;;0.80;;
9240;SDS011;53485;49.326;9.738;2023-04-24T08:50:26;2.33;;;0.70;;
9240;SDS011;53485;49.326;9.738;2023-04-24T08:52:52;1.50;;;0.60;;
9240;SDS011;53485;49.326;9.738;2023-04-24T08:55:19;4.23;;;0.90;;
9240;SDS011;53485;49.326;9.738;2023-04-24T08:57:45;0.90;;;0.80;;
9240;SDS011;53485;49.326;9.738;2023-04-24T09:00:11;1.90;;;0.77;;
9240;SDS011;53485;49.326;9.738;2023-04-24T09:02:39;1.20;;;0.80;;
9240;SDS011;53485;49.326;9.738;2023-04-24T09:05:04;0.50;;;0.50;;
9240;SDS011;53485;49.326;9.738;2023-04-24T09:07:31;1.07;;;0.60;;
9240;SDS011;53485;49.326;9.738;2023-04-24T09:09:57;1.53;;;0.60;;
9240;SDS011;53485;49.326;9.738;2023-04-24T09:12:23;2.23;;;0.83;;
9240;SDS011;53485;49.326;9.738;2023-04-24T09:14:50;1.30;;;0.80;;
9240;SDS011;53485;49.326;9.738;2023-04-24T09:17:16;2.80;;;0.90;;
9240;SDS011;53485;49.326;9.738;2023-04-24T09:19:43;1.37;;;1.00;;
9240;SDS011;53485;49.326;9.738;2023-04-24T09:22:09;1.20;;;1.10;;
9240;SDS011;53485;49.326;9.738;2023-04-24T09:24:35;1.30;;;1.20;;
9240;SDS011;53485;49.326;9.738;2023-04-24T09:27:02;1.87;;;1.37;;
9240;SDS011;53485;49.326;9.738;2023-04-24T09:29:28;4.50;;;1.40;;
9240;SDS011;53485;49.326;9.738;2023-04-24T09:31:55;1.10;;;1.03;;
9240;SDS011;53485;49.326;9.738;2023-04-24T09:34:21;1.30;;;1.20;;
9240;SDS011;53485;49.326;9.738;2023-04-24T09:36:47;3.30;;;1.53;;
9240;SDS011;53485;49.326;9.738;2023-04-24T09:39:14;1.73;;;1.50;;
9240;SDS011;53485;49.326;9.738;2023-04-24T09:41:46;1.70;;;1.30;;
9240;SDS011;53485;49.326;9.738;2023-04-24T09:44:12;1.20;;;1.03;;
9240;SDS011;53485;49.326;9.738;2023-04-24T09:46:37;1.43;;;1.33;;
9240;SDS011;53485;49.326;9.738;2023-04-24T09:49:09;2.03;;;1.47;;
9240;SDS011;53485;49.326;9.738;2023-04-24T09:51:35;1.30;;;1.20;;
9240;SDS011;53485;49.326;9.738;2023-04-24T09:54:01;2.27;;;1.10;;
9240;SDS011;53485;49.326;9.738;2023-04-24T09:56:27;1.73;;;1.10;;
9240;SDS011;53485;49.326;9.738;2023-04-24T09:58:54;1.50;;;1.30;;
9240;SDS011;53485;49.326;9.738;2023-04-24T10:03:52;1.13;;;0.90;;
9240;SDS011;53485;49.326;9.738;2023-04-24T10:06:19;0.73;;;0.73;;
9240;SDS011;53485;49.326;9.738;2023-04-24T10:08:45;1.23;;;0.70;;
9240;SDS011;53485;49.326;9.738;2023-04-24T10:11:12;1.00;;;1.00;;
9240;SDS011;53485;49.326;9.738;2023-04-24T10:13:39;1.53;;;1.00;;
9240;SDS011;53485;49.326;9.738;2023-04-24T10:16:05;1.00;;;0.90;;
9240;SDS011;53485;49.326;9.738;2023-04-24T10:18:31;2.70;;;0.90;;
9240;SDS011;53485;49.326;9.738;2023-04-24T10:20:57;3.03;;;1.00;;
9240;SDS011;53485;49.326;9.738;2023-04-24T10:23:24;6.10;;;1.00;;
9240;SDS011;53485;49.326;9.738;2023-04-24T10:25:50;1.50;;;0.97;;
9240;SDS011;53485;49.326;9.738;2023-04-24T10:28:16;2.07;;;1.07;;
9240;SDS011;53485;49.326;9.738;2023-04-24T10:30:42;1.20;;;1.10;;
9240;SDS011;53485;49.326;9.738;2023-04-24T10:33:08;1.87;;;1.00;;
9240;SDS011;53485;49.326;9.738;2023-04-24T10:35:36;1.73;;;1.00;;
9240;SDS011;53485;49.326;9.738;2023-04-24T10:38:03;0.80;;;0.80;;
9240;SDS011;53485;49.326;9.738;2023-04-24T10:40:30;1.00;;;1.00;;
9240;SDS011;53485;49.326;9.738;2023-04-24T10:42:55;1.10;;;1.00;;
9240;SDS011;53485;49.326;9.738;2023-04-24T10:45:22;3.10;;;1.00;;
9240;SDS011;53485;49.326;9.738;2023-04-24T10:47:51;3.43;;;1.30;;
9240;SDS011;53485;49.326;9.738;2023-04-24T10:50:17;1.83;;;1.33;;
9240;SDS011;53485;49.326;9.738;2023-04-24T10:52:44;2.17;;;1.67;;
9240;SDS011;53485;49.326;9.738;2023-04-24T10:55:10;2.53;;;2.33;;
9240;SDS011;53485;49.326;9.738;2023-04-24T10:57:36;3.00;;;2.60;;
9240;SDS011;53485;49.326;9.738;2023-04-24T11:00:12;1.80;;;1.70;;
9240;SDS011;53485;49.326;9.738;2023-04-24T11:02:36;3.43;;;2.23;;
9240;SDS011;53485;49.326;9.738;2023-04-24T11:05:03;2.00;;;1.90;;
9240;SDS011;53485;49.326;9.738;2023-04-24T11:07:29;3.63;;;1.83;;
9240;SDS011;53485;49.326;9.738;2023-04-24T11:09:58;3.20;;;2.20;;
9240;SDS011;53485;49.326;9.738;2023-04-24T11:12:23;2.63;;;2.00;;
9240;SDS011;53485;49.326;9.738;2023-04-24T11:15:02;2.23;;;2.03;;
9240;SDS011;53485;49.326;9.738;2023-04-24T11:17:34;2.03;;;1.63;;
9240;SDS011;53485;49.326;9.738;2023-04-24T11:20:04;2.30;;;1.60;;
9240;SDS011;53485;49.326;9.738;2023-04-24T11:22:30;3.07;;;1.90;;
9240;SDS011;53485;49.326;9.738;2023-04-24T11:24:56;1.37;;;1.20;;
9240;SDS011;53485;49.326;9.738;2023-04-24T11:27:22;2.10;;;1.60;;
9240;SDS011;53485;49.326;9.738;2023-04-24T11:29:58;1.60;;;1.50;;
9240;SDS011;53485;49.326;9.738;2023-04-24T11:32:17;1.80;;;1.53;;
9240;SDS011;53485;49.326;9.738;2023-04-24T11:34:45;1.30;;;1.20;;
9240;SDS011;53485;49.326;9.738;2023-04-24T11:37:08;4.03;;;1.40;;
9240;SDS011;53485;49.326;9.738;2023-04-24T11:39:36;1.40;;;1.20;;
9240;SDS011;53485;49.326;9.738;2023-04-24T11:42:02;1.70;;;1.60;;
9240;SDS011;53485;49.326;9.738;2023-04-24T11:44:28;5.70;;;3.20;;
9240;SDS011;53485;49.326;9.738;2023-04-24T11:46:55;2.67;;;1.70;;
9240;SDS011;53485;49.326;9.738;2023-04-24T11:49:20;2.43;;;1.83;;
9240;SDS011;53485;49.326;9.738;2023-04-24T11:51:47;4.03;;;2.43;;
9240;SDS011;53485;49.326;9.738;2023-04-24T11:54:13;2.33;;;2.20;;
9240;SDS011;53485;49.326;9.738;2023-04-24T11:56:40;3.23;;;2.50;;
9240;SDS011;53485;49.326;9.738;2023-04-24T11:59:06;4.27;;;2.97;;
9240;SDS011;53485;49.326;9.738;2023-04-24T12:01:42;6.50;;;5.17;;
9240;SDS011;53485;49.326;9.738;2023-04-24T12:03:59;5.77;;;5.20;;
9240;SDS011;53485;49.326;9.738;2023-04-24T12:06:25;7.93;;;7.13;;
9240;SDS011;53485;49.326;9.738;2023-04-24T12:08:52;9.10;;;7.63;;
9240;SDS011;53485;49.326;9.738;2023-04-24T12:11:18;13.27;;;10.27;;
9240;SDS011;53485;49.326;9.738;2023-04-24T12:13:44;29.40;;;18.20;;
9240;SDS011;53485;49.326;9.738;2023-04-24T12:16:11;19.60;;;15.67;;
9240;SDS011;53485;49.326;9.738;2023-04-24T12:18:42;12.60;;;10.73;;
9240;SDS011;53485;49.326;9.738;2023-04-24T12:23:42;12.27;;;10.63;;
9240;SDS011;53485;49.326;9.738;2023-04-24T12:26:06;10.13;;;9.23;;
9240;SDS011;53485;49.326;9.738;2023-04-24T12:28:35;8.27;;;7.47;;
9240;SDS011;53485;49.326;9.738;2023-04-24T12:31:00;10.37;;;9.20;;
9240;SDS011;53485;49.326;9.738;2023-04-24T12:33:27;5.33;;;4.83;;
9240;SDS011;53485;49.326;9.738;2023-04-24T12:35:53;3.73;;;3.53;;
9240;SDS011;53485;49.326;9.738;2023-04-24T12:38:22;3.27;;;2.70;;
9240;SDS011;53485;49.326;9.738;2023-04-24T12:40:48;4.43;;;3.33;;
9240;SDS011;53485;49.326;9.738;2023-04-24T12:43:17;7.33;;;4.23;;
9240;SDS011;53485;49.326;9.738;2023-04-24T12:45:42;4.83;;;4.33;;
9240;SDS011;53485;49.326;9.738;2023-04-24T12:48:08;19.60;;;12.47;;
9240;SDS011;53485;49.326;9.738;2023-04-24T12:50:35;9.87;;;6.20;;
9240;SDS011;53485;49.326;9.738;2023-04-24T12:53:01;4.27;;;3.90;;
9240;SDS011;53485;49.326;9.738;2023-04-24T12:55:28;3.87;;;3.53;;
9240;SDS011;53485;49.326;9.738;2023-04-24T12:57:54;6.53;;;4.63;;
9240;SDS011;53485;49.326;9.738;2023-04-24T13:00:21;4.33;;;3.93;;
9240;SDS011;53485;49.326;9.738;2023-04-24T13:02:47;5.80;;;4.80;;
9240;SDS011;53485;49.326;9.738;2023-04-24T13:05:14;4.33;;;3.93;;
9240;SDS011;53485;49.326;9.738;2023-04-24T13:07:40;5.43;;;4.80;;
9240;SDS011;53485;49.326;9.738;2023-04-24T13:10:07;4.83;;;4.33;;
9240;SDS011;53485;49.326;9.738;2023-04-24T13:12:34;3.83;;;3.43;;
9240;SDS011;53485;49.326;9.738;2023-04-24T13:15:00;4.50;;;3.70;;
9240;SDS011;53485;49.326;9.738;2023-04-24T13:17:27;6.77;;;3.57;;
9240;SDS011;53485;49.326;9.738;2023-04-24T13:19:54;4.57;;;3.93;;
9240;SDS011;53485;49.326;9.738;2023-04-24T13:22:19;5.60;;;5.10;;
9240;SDS011;53485;49.326;9.738;2023-04-24T13:24:46;2.93;;;2.63;;
9240;SDS011;53485;49.326;9.738;2023-04-24T13:27:12;3.00;;;2.43;;
9240;SDS011;53485;49.326;9.738;2023-04-24T13:29:39;3.47;;;3.17;;
9240;SDS011;53485;49.326;9.738;2023-04-24T13:32:05;8.33;;;7.40;;
9240;SDS011;53485;49.326;9.738;2023-04-24T13:34:31;4.60;;;3.73;;
9240;SDS011;53485;49.326;9.738;2023-04-24T13:36:58;3.33;;;3.03;;
9240;SDS011;53485;49.326;9.738;2023-04-24T13:39:24;4.30;;;2.70;;
9240;SDS011;53485;49.326;9.738;2023-04-24T13:41:50;4.60;;;3.10;;
9240;SDS011;53485;49.326;9.738;2023-04-24T13:44:17;3.90;;;3.00;;
9240;SDS011;53485;49.326;9.738;2023-04-24T13:46:43;5.40;;;4.40;;
9240;SDS011;53485;49.326;9.738;2023-04-24T13:49:09;2.87;;;2.13;;
9240;SDS011;53485;49.326;9.738;2023-04-24T13:51:36;3.57;;;3.27;;
9240;SDS011;53485;49.326;9.738;2023-04-24T13:54:02;3.57;;;2.57;;
9240;SDS011;53485;49.326;9.738;2023-04-24T13:56:29;2.87;;;2.30;;
9240;SDS011;53485;49.326;9.738;2023-04-24T13:58:55;2.70;;;2.50;;
9240;SDS011;53485;49.326;9.738;2023-04-24T14:01:22;4.87;;;4.37;;
9240;SDS011;53485;49.326;9.738;2023-04-24T14:03:51;2.10;;;1.87;;
9240;SDS011;53485;49.326;9.738;2023-04-24T14:06:18;5.77;;;5.20;;
9240;SDS011;53485;49.326;9.738;2023-04-24T14:08:44;8.97;;;6.10;;
9240;SDS011;53485;49.326;9.738;2023-04-24T14:11:10;4.27;;;2.87;;
9240;SDS011;53485;49.326;9.738;2023-04-24T14:13:37;3.30;;;2.50;;
9240;SDS011;53485;49.326;9.738;2023-04-24T14:16:04;7.57;;;5.80;;
9240;SDS011;53485;49.326;9.738;2023-04-24T14:18:30;11.53;;;9.10;;
9240;SDS011;53485;49.326;9.738;2023-04-24T14:20:56;2.13;;;2.03;;
9240;SDS011;53485;49.326;9.738;2023-04-24T14:23:23;2.40;;;2.20;;
9240;SDS011;53485;49.326;9.738;2023-04-24T14:25:49;3.20;;;2.00;;
9240;SDS011;53485;49.326;9.738;2023-04-24T14:28:16;3.10;;;1.87;;
9240;SDS011;53485;49.326;9.738;2023-04-24T14:30:42;2.20;;;1.77;;
9240;SDS011;53485;49.326;9.738;2023-04-24T14:33:09;2.63;;;2.13;;
9240;SDS011;53485;49.326;9.738;2023-04-24T14:35:35;2.70;;;2.03;;
9240;SDS011;53485;49.326;9.738;2023-04-24T14:38:01;3.37;;;2.77;;
9240;SDS011;53485;49.326;9.738;2023-04-24T14:40:28;2.27;;;2.13;;
9240;SDS011;53485;49.326;9.738;2023-04-24T14:42:54;4.97;;;4.00;;
9240;SDS011;53485;49.326;9.738;2023-04-24T14:45:21;4.57;;;4.13;;
9240;SDS011;53485;49.326;9.738;2023-04-24T14:47:47;3.87;;;3.23;;
9240;SDS011;53485;49.326;9.738;2023-04-24T14:50:14;3.50;;;2.97;;
9240;SDS011;53485;49.326;9.738;2023-04-24T14:52:41;5.43;;;4.23;;
9240;SDS011;53485;49.326;9.738;2023-04-24T14:55:08;4.73;;;3.07;;
9240;SDS011;53485;49.326;9.738;2023-04-24T14:57:34;4.07;;;3.67;;
9240;SDS011;53485;49.326;9.738;2023-04-24T15:00:01;4.43;;;3.83;;